Time;durP1;ratioP1;P1;durP2;ratioP2;P2;SDS_P1;SDS_P2;PMS_P1;PMS_P2;Temp;Humidity;BMP_temperature;BMP_pressure;BME280_temperature;BME280_humidity;BME280_pressure;Samples;Min_cycle;Max_cycle;Signal;HPM_P1;HPM_P2
2023/03/31 00:01:11;;;;;;;13.90;10.70;;;;;;;10.18;100.00;99504.19;105289;1259;99133;-75
2023/03/31 00:04:03;;;;;;;17.20;11.20;;;;;;;10.17;100.00;99504.81;105240;1259;97697;-75
2023/03/31 00:06:49;;;;;;;15.50;10.80;;;;;;;10.17;100.00;99500.85;105292;1254;97227;-75
2023/03/31 00:09:35;;;;;;;19.70;12.10;;;;;;;10.18;100.00;99497.19;105169;1254;96162;-75
2023/03/31 00:12:20;;;;;;;16.20;11.20;;;;;;;10.18;100.00;99494.84;105412;1254;98655;-77
2023/03/31 00:15:06;;;;;;;15.20;10.60;;;;;;;10.17;100.00;99493.90;105385;1261;100288;-75
2023/03/31 00:17:53;;;;;;;16.90;11.80;;;;;;;10.16;100.00;99491.48;105549;1259;97650;-78
2023/03/31 00:20:41;;;;;;;22.80;12.10;;;;;;;10.14;100.00;99487.95;105564;1254;95812;-77
2023/03/31 00:23:27;;;;;;;14.90;11.00;;;;;;;10.12;100.00;99491.02;105271;1260;95876;-77
2023/03/31 00:26:13;;;;;;;15.80;10.30;;;;;;;10.11;100.00;99497.44;105289;1258;98636;-76
2023/03/31 00:28:59;;;;;;;15.90;10.80;;;;;;;10.09;100.00;99497.63;105512;1260;99229;-77
2023/03/31 00:31:45;;;;;;;16.30;10.10;;;;;;;10.10;100.00;99497.96;105310;1257;97802;-78
2023/03/31 00:34:31;;;;;;;13.00;9.80;;;;;;;10.09;100.00;99496.98;105618;1254;98079;-77
2023/03/31 00:37:16;;;;;;;17.70;11.30;;;;;;;10.09;100.00;99497.15;105489;1254;95902;-78
2023/03/31 00:40:09;;;;;;;31.50;19.90;;;;;;;10.09;100.00;99501.21;105518;1254;98628;-76
2023/03/31 00:42:54;;;;;;;18.00;13.40;;;;;;;10.09;100.00;99505.30;105454;1260;100425;-75
2023/03/31 00:45:40;;;;;;;15.20;10.60;;;;;;;10.11;100.00;99507.51;105730;1258;97783;-75
2023/03/31 00:48:26;;;;;;;12.90;10.00;;;;;;;10.11;100.00;99505.07;105465;1260;95990;-78
2023/03/31 00:51:13;;;;;;;14.20;11.10;;;;;;;10.11;100.00;99507.12;105497;1254;96072;-76
2023/03/31 00:54:04;;;;;;;15.90;11.00;;;;;;;10.10;100.00;99503.65;106500;1254;98603;-77
2023/03/31 00:56:54;;;;;;;13.70;9.80;;;;;;;10.08;100.00;99497.80;105581;1259;100636;-78
2023/03/31 00:59:45;;;;;;;11.60;9.40;;;;;;;10.05;100.00;99491.02;105678;1267;98705;-78
2023/03/31 01:02:32;;;;;;;14.50;10.10;;;;;;;10.04;100.00;99493.95;105597;1254;96694;-75
2023/03/31 01:05:38;;;;;;;17.50;10.40;;;;;;;10.02;100.00;99496.13;105360;1254;95955;-76
2023/03/31 01:08:26;;;;;;;15.70;10.20;;;;;;;10.01;100.00;99497.83;105386;1254;99382;-78
2023/03/31 01:11:15;;;;;;;12.40;9.70;;;;;;;10.01;100.00;99491.64;105669;1254;99139;-77
2023/03/31 01:14:02;;;;;;;15.00;10.00;;;;;;;10.00;100.00;99488.20;105525;1254;98994;-77
2023/03/31 01:16:47;;;;;;;14.90;9.80;;;;;;;10.01;100.00;99490.13;105456;1260;96028;-74
2023/03/31 01:19:52;;;;;;;11.80;10.00;;;;;;;10.00;100.00;99487.45;105378;1258;95889;-75
2023/03/31 01:22:59;;;;;;;14.80;10.20;;;;;;;10.00;100.00;99483.71;105415;1258;99375;-77
2023/03/31 01:26:42;;;;;;;14.00;11.10;;;;;;;9.99;100.00;99483.51;105257;1273;100352;-76
2023/03/31 01:30:04;;;;;;;15.20;11.00;;;;;;;9.98;100.00;99485.08;105010;1261;97723;-75
2023/03/31 01:33:24;;;;;;;16.80;10.50;;;;;;;9.97;100.00;99484.46;106724;1264;96068;-75
2023/03/31 01:36:41;;;;;;;12.40;9.20;;;;;;;9.97;100.00;99484.66;105252;1257;95991;-76
2023/03/31 01:39:45;;;;;;;15.40;9.20;;;;;;;9.97;100.00;99483.05;105337;1257;98768;-76
2023/03/31 01:43:05;;;;;;;16.10;10.60;;;;;;;9.98;100.00;99483.52;105296;1254;99270;-76
2023/03/31 01:46:03;;;;;;;15.50;9.80;;;;;;;9.98;100.00;99486.06;105594;1260;97715;-76
2023/03/31 01:49:06;;;;;;;14.90;11.20;;;;;;;9.97;100.00;99481.87;105323;1254;96212;-75
2023/03/31 01:52:02;;;;;;;13.80;10.00;;;;;;;9.96;100.00;99484.26;105352;1261;95865;-75
2023/03/31 01:54:56;;;;;;;13.40;10.20;;;;;;;9.97;100.00;99487.02;105707;1254;99418;-77
2023/03/31 01:57:52;;;;;;;14.20;9.80;;;;;;;9.97;100.00;99489.69;105372;1257;99848;-78
2023/03/31 02:00:44;;;;;;;13.00;11.00;;;;;;;9.97;100.00;99490.80;105182;1261;98459;-76
2023/03/31 02:03:38;;;;;;;12.50;10.70;;;;;;;9.97;100.00;99494.70;105171;1261;96604;-77
2023/03/31 02:06:30;;;;;;;12.80;9.60;;;;;;;9.97;100.00;99499.69;105279;1258;95911;-76
2023/03/31 02:09:21;;;;;;;12.50;10.60;;;;;;;9.97;100.00;99502.31;105348;1271;98627;-76
2023/03/31 02:12:10;;;;;;;12.50;10.30;;;;;;;9.98;100.00;99500.31;105327;1261;99060;-77
2023/03/31 02:14:58;;;;;;;14.40;10.80;;;;;;;9.97;100.00;99499.64;105166;1254;98947;-77
2023/03/31 02:17:47;;;;;;;11.40;9.40;;;;;;;9.96;100.00;99500.91;105274;1257;96694;-75
2023/03/31 02:20:33;;;;;;;13.80;9.80;;;;;;;9.93;100.00;99500.44;105523;1254;96499;-76
2023/03/31 02:23:25;;;;;;;12.80;10.40;;;;;;;9.92;100.00;99500.92;105361;1268;101271;-75
2023/03/31 02:26:19;;;;;;;12.70;10.40;;;;;;;9.91;100.00;99501.05;105204;1271;100311;-75
2023/03/31 02:29:05;;;;;;;14.30;10.50;;;;;;;9.89;100.00;99499.58;105321;1259;97686;-75
2023/03/31 02:32:03;;;;;;;15.20;10.10;;;;;;;9.87;100.00;99508.80;105143;1255;96698;-77
2023/03/31 02:34:48;;;;;;;14.80;9.80;;;;;;;9.82;100.00;99508.20;105318;1254;96814;-75
2023/03/31 02:37:35;;;;;;;12.50;10.70;;;;;;;9.77;100.00;99507.95;105331;1260;101779;-76
2023/03/31 02:40:21;;;;;;;12.60;10.60;;;;;;;9.75;100.00;99507.58;105603;1261;100564;-77
2023/03/31 02:43:06;;;;;;;12.20;9.20;;;;;;;9.72;100.00;99509.20;105365;1261;97730;-74
2023/03/31 02:45:52;;;;;;;14.80;11.20;;;;;;;9.70;100.00;99503.30;105331;1257;96856;-75
2023/03/31 02:48:43;;;;;;;13.40;10.60;;;;;;;9.68;99.98;99506.02;105427;1256;96639;-75
2023/03/31 02:51:50;;;;;;;13.90;11.10;;;;;;;9.66;99.97;99507.31;105364;1258;100022;-75
2023/03/31 02:54:55;;;;;;;17.20;12.00;;;;;;;9.64;100.00;99510.27;105239;1257;100314;-76
2023/03/31 02:58:23;;;;;;;11.60;10.00;;;;;;;9.63;100.00;99511.83;105438;1270;99408;-79
2023/03/31 03:01:37;;;;;;;14.40;10.80;;;;;;;9.62;100.00;99513.64;105146;1254;96630;-75
2023/03/31 03:04:40;;;;;;;12.10;10.50;;;;;;;9.61;100.00;99509.33;105385;1260;97123;-76
2023/03/31 03:08:04;;;;;;;12.20;10.90;;;;;;;9.58;99.91;99507.77;105363;1258;101167;-77
2023/03/31 03:11:06;;;;;;;12.70;10.70;;;;;;;9.53;99.95;99508.99;105320;1260;99140;-77
2023/03/31 03:14:15;;;;;;;14.20;11.20;;;;;;;9.50;99.89;99509.62;105223;1254;97725;-76
2023/03/31 03:17:12;;;;;;;16.90;12.00;;;;;;;9.47;99.82;99512.00;105260;1261;96566;-78
2023/03/31 03:20:07;;;;;;;13.00;10.70;;;;;;;9.42;99.81;99512.58;105718;1254;97145;-77
2023/03/31 03:22:52;;;;;;;12.80;10.70;;;;;;;9.39;99.78;99513.90;105439;1257;100857;-75
2023/03/31 03:25:38;;;;;;;13.70;10.50;;;;;;;9.35;99.83;99517.64;105358;1259;99053;-75
2023/03/31 03:28:23;;;;;;;15.70;10.30;;;;;;;9.32;99.70;99522.52;105330;1258;98963;-75
2023/03/31 03:31:09;;;;;;;14.30;10.90;;;;;;;9.30;99.69;99520.05;105229;1258;97167;-73
2023/03/31 03:33:54;;;;;;;16.50;11.20;;;;;;;9.29;99.66;99519.00;105320;1260;96592;-77
2023/03/31 03:36:39;;;;;;;18.40;12.20;;;;;;;9.27;99.74;99519.40;105466;1255;100042;-77
2023/03/31 03:39:25;;;;;;;15.80;12.70;;;;;;;9.25;99.97;99519.44;105394;1258;99057;-75
2023/03/31 03:42:11;;;;;;;16.80;12.40;;;;;;;9.26;99.99;99519.89;105231;1257;98078;-75
2023/03/31 03:44:56;;;;;;;18.60;12.70;;;;;;;9.27;100.00;99520.02;105382;1261;96606;-76
2023/03/31 03:47:42;;;;;;;15.50;12.00;;;;;;;9.26;100.00;99522.23;105369;1261;96675;-76
2023/03/31 03:50:27;;;;;;;18.20;13.90;;;;;;;9.25;100.00;99519.60;105391;1254;100010;-75
2023/03/31 03:53:14;;;;;;;22.20;19.00;;;;;;;9.24;100.00;99519.97;105423;1254;99059;-77
2023/03/31 03:56:00;;;;;;;26.70;19.50;;;;;;;9.26;100.00;99517.25;105330;1259;97791;-77
2023/03/31 03:58:45;;;;;;;27.00;18.80;;;;;;;9.28;100.00;99521.50;105412;1257;97086;-75
2023/03/31 04:01:31;;;;;;;37.20;23.20;;;;;;;9.27;100.00;99531.54;105300;1259;97221;-76
2023/03/31 04:04:17;;;;;;;33.30;29.60;;;;;;;9.25;100.00;99535.23;105369;1254;100063;-76
2023/03/31 04:07:02;;;;;;;27.00;20.50;;;;;;;9.24;100.00;99529.91;105514;1254;99640;-76
2023/03/31 04:09:48;;;;;;;22.50;16.60;;;;;;;9.24;100.00;99521.29;105382;1258;97727;-76
2023/03/31 04:12:34;;;;;;;24.70;18.40;;;;;;;9.24;100.00;99520.55;105159;1260;96601;-75
2023/03/31 04:15:20;;;;;;;34.50;24.10;;;;;;;9.24;100.00;99517.88;105254;1254;97155;-76
2023/03/31 04:18:09;;;;;;;28.90;23.60;;;;;;;9.25;100.00;99516.89;105235;1258;100074;-75
2023/03/31 04:21:04;;;;;;;25.80;20.80;;;;;;;9.25;100.00;99517.79;105352;1258;99162;-75
2023/03/31 04:23:57;;;;;;;28.20;21.00;;;;;;;9.24;100.00;99520.34;105385;1258;97725;-77
2023/03/31 04:26:42;;;;;;;22.50;17.50;;;;;;;9.24;100.00;99523.59;105315;1260;96675;-76
2023/03/31 04:29:32;;;;;;;22.70;17.00;;;;;;;9.23;100.00;99521.88;105349;1256;96595;-76
2023/03/31 04:32:20;;;;;;;20.70;14.90;;;;;;;9.24;100.00;99513.80;105229;1260;101300;-77
2023/03/31 04:35:06;;;;;;;23.80;15.70;;;;;;;9.24;100.00;99511.70;105345;1261;99072;-75
2023/03/31 04:37:57;;;;;;;28.60;17.40;;;;;;;9.22;100.00;99510.48;105290;1259;97744;-76
2023/03/31 04:40:48;;;;;;;24.60;17.90;;;;;;;9.22;100.00;99508.21;105196;1257;96606;-77
2023/03/31 04:43:33;;;;;;;22.70;16.90;;;;;;;9.23;100.00;99506.29;106061;1255;97903;-77
2023/03/31 04:46:19;;;;;;;23.20;16.90;;;;;;;9.23;100.00;99506.95;105443;1260;99996;-76
2023/03/31 04:49:06;;;;;;;24.70;17.40;;;;;;;9.26;100.00;99501.27;105379;1256;99314;-76
2023/03/31 04:51:52;;;;;;;25.00;17.60;;;;;;;9.28;100.00;99499.39;105274;1259;98749;-75
2023/03/31 04:54:38;;;;;;;25.30;17.80;;;;;;;9.28;100.00;99501.11;105569;1260;96609;-76
2023/03/31 04:57:23;;;;;;;25.30;17.30;;;;;;;9.29;100.00;99500.86;105453;1260;96510;-77
2023/03/31 05:00:10;;;;;;;21.70;15.70;;;;;;;9.28;100.00;99498.36;105421;1258;100066;-74
2023/03/31 05:02:55;;;;;;;22.70;15.50;;;;;;;9.27;100.00;99491.69;105279;1258;99107;-76
2023/03/31 05:05:41;;;;;;;19.50;16.00;;;;;;;9.27;100.00;99493.75;105278;1255;98984;-77
2023/03/31 05:08:26;;;;;;;23.20;15.30;;;;;;;9.29;100.00;99489.88;105268;1258;96676;-76
2023/03/31 05:11:12;;;;;;;22.10;16.10;;;;;;;9.29;100.00;99487.09;105257;1258;98300;-75
2023/03/31 05:13:57;;;;;;;21.70;15.90;;;;;;;9.28;100.00;99485.40;105202;1258;101242;-76
2023/03/31 05:16:43;;;;;;;22.80;15.30;;;;;;;9.29;100.00;99481.63;105312;1257;100425;-76
2023/03/31 05:19:28;;;;;;;20.20;15.70;;;;;;;9.29;100.00;99485.33;105480;1258;99377;-77
2023/03/31 05:22:19;;;;;;;25.60;16.10;;;;;;;9.31;100.00;99487.38;105287;1258;96606;-76
2023/03/31 05:25:07;;;;;;;22.40;15.90;;;;;;;9.32;100.00;99489.18;105236;1258;97820;-76
2023/03/31 05:27:52;;;;;;;22.10;14.50;;;;;;;9.33;100.00;99486.43;107229;1257;100742;-77
2023/03/31 05:30:38;;;;;;;23.30;17.80;;;;;;;9.33;100.00;99481.95;105384;1258;100336;-76
2023/03/31 05:33:23;;;;;;;24.00;16.30;;;;;;;9.34;100.00;99475.63;105243;1258;97693;-76
2023/03/31 05:36:14;;;;;;;23.40;16.40;;;;;;;9.36;100.00;99471.59;105245;1257;97319;-76
2023/03/31 05:39:00;;;;;;;25.10;17.90;;;;;;;9.37;100.00;99474.76;105328;1258;97076;-75
2023/03/31 05:41:45;;;;;;;22.80;17.40;;;;;;;9.39;100.00;99473.23;105438;1255;99969;-77
2023/03/31 05:44:31;;;;;;;22.70;16.80;;;;;;;9.41;100.00;99475.66;105441;1259;98955;-76
2023/03/31 05:47:17;;;;;;;24.90;17.20;;;;;;;9.43;100.00;99475.77;105311;1255;98397;-76
2023/03/31 05:50:06;;;;;;;26.40;17.40;;;;;;;9.47;100.00;99476.02;105369;1258;96519;-76
2023/03/31 05:52:52;;;;;;;22.90;17.70;;;;;;;9.50;100.00;99472.73;105314;1258;97027;-76
2023/03/31 05:55:38;;;;;;;25.90;18.50;;;;;;;9.52;100.00;99472.73;105544;1254;102984;-78
2023/03/31 05:58:23;;;;;;;24.00;18.20;;;;;;;9.57;100.00;99471.25;105541;1254;99219;-76
2023/03/31 06:01:12;;;;;;;21.80;17.20;;;;;;;9.61;100.00;99470.50;105418;1256;98858;-76
2023/03/31 06:03:57;;;;;;;24.40;19.20;;;;;;;9.62;100.00;99461.61;105769;1256;96627;-75
2023/03/31 06:06:43;;;;;;;25.70;18.50;;;;;;;9.64;100.00;99464.00;105489;1259;97119;-77
2023/03/31 06:09:28;;;;;;;22.30;17.60;;;;;;;9.68;100.00;99469.71;105501;1254;99977;-76
2023/03/31 06:12:14;;;;;;;24.40;19.10;;;;;;;9.72;100.00;99465.50;105566;1253;99301;-77
2023/03/31 06:15:00;;;;;;;28.90;20.50;;;;;;;9.74;100.00;99464.30;105389;1259;97714;-76
2023/03/31 06:17:45;;;;;;;26.00;20.20;;;;;;;9.77;100.00;99458.28;105629;1254;96968;-83
2023/03/31 06:20:31;;;;;;;29.70;21.30;;;;;;;9.80;100.00;99460.35;106435;1253;96383;-87
2023/03/31 06:23:17;;;;;;;26.30;21.00;;;;;;;9.84;100.00;99461.16;106366;1253;100724;-84
2023/03/31 06:26:07;;;;;;;28.10;20.40;;;;;;;9.89;100.00;99462.63;106328;1256;99079;-79
2023/03/31 06:28:52;;;;;;;26.00;19.90;;;;;;;9.91;100.00;99459.37;105890;1254;97740;-79
2023/03/31 06:31:37;;;;;;;26.40;20.00;;;;;;;9.92;100.00;99459.65;105790;1256;96639;-79
2023/03/31 06:34:23;;;;;;;28.30;21.30;;;;;;;9.97;100.00;99457.29;105780;1257;97113;-78
2023/03/31 06:37:08;;;;;;;26.10;20.70;;;;;;;10.03;100.00;99454.48;105711;1257;99971;-79
2023/03/31 06:39:54;;;;;;;27.00;20.90;;;;;;;10.06;100.00;99457.06;105784;1257;100985;-80
2023/03/31 06:42:39;;;;;;;28.90;20.90;;;;;;;10.11;100.00;99462.91;105634;1253;97738;-80
2023/03/31 06:45:25;;;;;;;28.00;20.10;;;;;;;10.13;100.00;99461.89;105744;1253;96833;-78
2023/03/31 06:48:10;;;;;;;30.00;21.10;;;;;;;10.14;100.00;99463.69;105866;1257;98339;-79
2023/03/31 06:51:00;;;;;;;25.70;19.20;;;;;;;10.17;100.00;99459.02;105696;1257;100925;-79
2023/03/31 06:53:46;;;;;;;23.70;19.20;;;;;;;10.21;100.00;99458.61;106151;1254;99180;-84
2023/03/31 06:56:32;;;;;;;27.80;20.40;;;;;;;10.24;100.00;99461.98;107085;1253;98266;-84
2023/03/31 06:59:17;;;;;;;24.10;19.20;;;;;;;10.26;100.00;99459.97;106662;1260;96520;-81
2023/03/31 07:02:03;;;;;;;24.10;18.60;;;;;;;10.29;100.00;99458.89;106504;1253;97161;-80
2023/03/31 07:04:48;;;;;;;23.60;19.10;;;;;;;10.33;100.00;99461.61;106205;1256;101384;-82
2023/03/31 07:07:34;;;;;;;23.20;18.00;;;;;;;10.34;100.00;99457.27;106456;1257;100307;-82
2023/03/31 07:10:20;;;;;;;23.00;18.00;;;;;;;10.35;100.00;99452.95;106427;1255;98539;-84
2023/03/31 07:13:05;;;;;;;20.90;17.30;;;;;;;10.37;100.00;99454.53;106039;1257;96712;-81
2023/03/31 07:15:51;;;;;;;22.00;16.00;;;;;;;10.39;100.00;99454.88;106146;1260;95931;-82
2023/03/31 07:18:40;;;;;;;19.00;15.00;;;;;;;10.39;100.00;99455.79;106347;1254;100004;-80
2023/03/31 07:21:26;;;;;;;21.00;16.60;;;;;;;10.40;100.00;99455.27;106538;1257;99151;-79
2023/03/31 07:24:11;;;;;;;21.60;15.80;;;;;;;10.38;100.00;99446.17;106576;1256;97697;-80
2023/03/31 07:26:57;;;;;;;22.50;17.00;;;;;;;10.36;100.00;99445.03;106387;1256;96593;-81
2023/03/31 07:29:42;;;;;;;21.00;16.70;;;;;;;10.39;100.00;99443.08;106045;1256;96587;-80
2023/03/31 07:32:28;;;;;;;20.10;16.70;;;;;;;10.41;100.00;99443.28;106392;1253;100017;-83
2023/03/31 07:35:13;;;;;;;20.80;16.20;;;;;;;10.42;100.00;99441.88;106245;1253;108151;-82
2023/03/31 07:37:59;;;;;;;21.10;17.60;;;;;;;10.44;100.00;99441.90;106439;1257;97725;-82
2023/03/31 07:40:44;;;;;;;21.20;17.50;;;;;;;10.45;100.00;99442.67;106548;1259;96811;-79
2023/03/31 07:43:29;;;;;;;25.00;18.70;;;;;;;10.45;100.00;99445.52;105741;1257;97791;-77
2023/03/31 07:46:24;;;;;;;24.90;17.80;;;;;;;10.46;100.00;99447.16;105776;1254;100023;-78
2023/03/31 07:49:14;;;;;;;25.30;18.10;;;;;;;10.48;100.00;99447.77;105977;1254;100380;-77
2023/03/31 07:52:01;;;;;;;30.00;19.10;;;;;;;10.54;100.00;99447.20;105573;1257;98699;-77
2023/03/31 07:54:46;;;;;;;26.10;18.90;;;;;;;10.59;100.00;99443.92;105514;1259;96606;-77
2023/03/31 07:57:32;;;;;;;24.80;17.30;;;;;;;10.66;100.00;99436.14;105813;1253;96608;-77
2023/03/31 08:00:18;;;;;;;26.50;17.20;;;;;;;10.74;100.00;99435.55;105721;1254;100012;-78
2023/03/31 08:03:03;;;;;;;21.10;15.20;;;;;;;10.80;100.00;99435.02;105661;1256;99322;-79
2023/03/31 08:05:53;;;;;;;21.90;16.40;;;;;;;10.84;100.00;99436.55;105562;1254;97731;-78
2023/03/31 08:08:42;;;;;;;21.10;13.80;;;;;;;10.90;100.00;99436.39;105625;1254;96606;-78
2023/03/31 08:11:27;;;;;;;17.40;12.80;;;;;;;10.96;100.00;99430.86;105552;1256;97423;-77
2023/03/31 08:14:12;;;;;;;15.90;12.10;;;;;;;11.01;100.00;99419.54;105469;1254;100546;-77
2023/03/31 08:16:59;;;;;;;21.00;12.40;;;;;;;11.11;100.00;99414.92;105695;1257;99065;-77
2023/03/31 08:19:44;;;;;;;20.30;12.40;;;;;;;11.22;100.00;99411.15;105566;1254;97770;-76
2023/03/31 08:22:30;;;;;;;17.20;10.80;;;;;;;11.31;100.00;99411.23;105645;1259;96607;-78
2023/03/31 08:25:15;;;;;;;13.70;10.00;;;;;;;11.39;100.00;99411.82;105661;1256;97025;-76
2023/03/31 08:28:00;;;;;;;14.10;9.40;;;;;;;11.45;100.00;99410.61;105609;1254;99973;-77
2023/03/31 08:30:46;;;;;;;11.90;9.10;;;;;;;11.50;100.00;99406.48;105787;1256;100303;-77
2023/03/31 08:33:33;;;;;;;13.60;8.40;;;;;;;11.56;100.00;99402.91;105833;1254;97705;-78
2023/03/31 08:36:19;;;;;;;11.90;8.60;;;;;;;11.62;99.94;99402.27;105630;1254;97151;-76
2023/03/31 08:39:06;;;;;;;12.10;8.40;;;;;;;11.64;99.39;99399.98;105544;1253;96523;-76
2023/03/31 08:42:03;;;;;;;12.20;7.70;;;;;;;11.67;99.59;99400.05;105641;1256;99988;-77
2023/03/31 08:44:55;;;;;;;14.40;7.80;;;;;;;11.74;99.43;99391.80;105725;1257;99732;-77
2023/03/31 08:47:43;;;;;;;11.60;7.60;;;;;;;11.79;99.37;99384.29;105665;1254;98285;-78
2023/03/31 08:50:33;;;;;;;11.80;7.80;;;;;;;11.85;99.26;99383.68;105585;1257;96620;-77
2023/03/31 08:53:22;;;;;;;;;;;;;;;11.91;98.99;99380.14;105656;1257;96728;-78
2023/03/31 08:56:18;;;;;;;16.50;7.80;;;;;;;11.94;98.54;99377.78;105877;1254;100761;-78
2023/03/31 08:59:05;;;;;;;11.20;7.10;;;;;;;12.00;98.32;99371.73;105844;1254;99079;-77
2023/03/31 09:02:03;;;;;;;11.00;6.70;;;;;;;12.10;99.04;99369.33;105736;1254;97728;-78
2023/03/31 09:05:25;;;;;;;13.90;7.20;;;;;;;12.21;98.39;99372.58;105672;1258;97295;-77
2023/03/31 09:08:32;;;;;;;14.80;7.60;;;;;;;12.29;97.99;99375.27;105631;1253;96545;-76
2023/03/31 09:11:25;;;;;;;11.50;8.10;;;;;;;12.38;98.01;99375.84;105508;1257;99950;-77
2023/03/31 09:14:25;;;;;;;13.20;8.10;;;;;;;12.47;98.05;99373.28;105601;1256;99171;-76
2023/03/31 09:17:21;;;;;;;9.20;6.90;;;;;;;12.55;97.96;99369.41;105422;1256;99867;-76
2023/03/31 09:20:31;;;;;;;11.70;7.00;;;;;;;12.63;97.29;99359.25;105532;1257;96608;-77
2023/03/31 09:23:37;;;;;;;10.60;6.70;;;;;;;12.66;95.94;99349.55;105487;1257;97046;-77
2023/03/31 09:26:34;;;;;;;9.10;6.20;;;;;;;12.68;95.98;99347.17;105560;1253;99956;-76
2023/03/31 09:29:38;;;;;;;9.50;6.30;;;;;;;12.75;95.73;99348.05;105394;1254;100311;-78
2023/03/31 09:32:28;;;;;;;8.50;5.70;;;;;;;12.78;95.15;99342.17;105518;1256;99448;-77
2023/03/31 09:35:24;;;;;;;10.00;5.60;;;;;;;12.83;95.20;99343.63;105442;1254;96621;-77
2023/03/31 09:38:11;;;;;;;10.20;5.90;;;;;;;12.86;94.30;99341.89;105568;1254;97887;-78
2023/03/31 09:40:58;;;;;;;9.30;5.80;;;;;;;12.86;93.57;99343.75;105417;1254;99972;-78
2023/03/31 09:43:46;;;;;;;10.60;6.60;;;;;;;12.86;93.66;99343.86;105565;1258;100871;-77
2023/03/31 09:46:37;;;;;;;8.90;5.30;;;;;;;12.95;94.02;99344.34;105402;1257;98995;-78
2023/03/31 09:49:32;;;;;;;11.80;5.50;;;;;;;13.05;94.11;99343.16;105584;1257;96574;-77
2023/03/31 09:52:26;;;;;;;8.60;5.10;;;;;;;13.12;93.70;99343.84;105493;1257;97129;-77
2023/03/31 09:55:26;;;;;;;11.80;5.00;;;;;;;13.21;94.00;99335.16;105449;1256;100095;-76
2023/03/31 09:58:15;;;;;;;9.30;5.60;;;;;;;13.26;93.63;99328.33;105575;1254;99627;-77
2023/03/31 10:01:06;;;;;;;10.40;5.20;;;;;;;13.28;92.93;99325.84;105467;1254;97704;-77
2023/03/31 10:03:53;;;;;;;9.20;4.70;;;;;;;13.29;92.28;99328.67;105438;1254;97052;-77
2023/03/31 10:06:41;;;;;;;8.10;5.40;;;;;;;13.30;92.30;99327.25;105582;1257;97134;-78
2023/03/31 10:09:30;;;;;;;10.60;5.50;;;;;;;13.34;92.19;99319.85;105665;1257;101291;-78
2023/03/31 10:12:23;;;;;;;11.40;5.40;;;;;;;13.40;91.87;99320.36;105694;1256;99097;-78
2023/03/31 10:15:20;;;;;;;11.30;5.20;;;;;;;13.44;91.21;99320.09;105625;1256;97689;-77
2023/03/31 10:18:05;;;;;;;11.40;5.30;;;;;;;13.45;90.96;99314.09;105719;1257;96661;-76
2023/03/31 10:20:51;;;;;;;41.80;16.50;;;;;;;13.48;91.12;99312.39;105562;1253;97189;-77
2023/03/31 10:23:37;;;;;;;95.20;31.10;;;;;;;13.54;90.72;99308.05;105440;1254;101249;-77
2023/03/31 10:26:26;;;;;;;196.60;61.10;;;;;;;13.63;90.21;99306.34;105501;1258;99056;-77
2023/03/31 10:29:14;;;;;;;79.00;39.00;;;;;;;13.68;89.88;99307.02;105872;1257;97773;-77
2023/03/31 10:32:08;;;;;;;22.20;14.20;;;;;;;13.73;89.59;99305.68;105465;1257;96651;-77
2023/03/31 10:34:55;;;;;;;19.90;8.30;;;;;;;13.75;88.92;99307.99;105523;1258;96670;-78
2023/03/31 10:37:41;;;;;;;8.30;5.80;;;;;;;13.77;88.47;99305.77;105521;1256;100011;-77
2023/03/31 10:40:30;;;;;;;13.30;7.00;;;;;;;13.80;88.37;99299.89;105526;1257;99154;-77
2023/03/31 10:43:19;;;;;;;14.80;5.60;;;;;;;13.86;88.71;99292.55;105330;1262;97678;-77
2023/03/31 10:46:05;;;;;;;8.20;4.90;;;;;;;13.90;88.11;99288.13;105608;1253;96542;-76
2023/03/31 10:48:51;;;;;;;14.80;5.30;;;;;;;13.90;87.26;99289.61;105411;1259;96700;-76
2023/03/31 10:51:36;;;;;;;10.10;5.10;;;;;;;13.87;86.84;99286.17;105526;1257;101389;-77
2023/03/31 10:54:23;;;;;;;9.60;5.50;;;;;;;13.89;87.51;99279.67;105576;1256;99063;-77
2023/03/31 10:57:08;;;;;;;12.10;5.60;;;;;;;13.96;87.14;99283.95;105512;1254;98912;-77
2023/03/31 11:00:24;;;;;;;13.40;6.40;;;;;;;13.97;86.75;99279.73;105595;1260;96587;-76
2023/03/31 11:03:13;;;;;;;12.70;7.00;;;;;;;14.01;86.43;99274.04;105517;1258;96523;-77
2023/03/31 11:06:08;;;;;;;13.40;6.60;;;;;;;14.02;86.13;99269.58;105514;1253;99984;-77
2023/03/31 11:09:14;;;;;;;11.90;5.80;;;;;;;14.08;86.44;99265.95;105578;1256;99132;-77
2023/03/31 11:12:14;;;;;;;9.30;5.50;;;;;;;14.20;86.59;99261.46;105700;1258;99530;-78
2023/03/31 11:15:15;;;;;;;10.90;6.40;;;;;;;14.29;85.91;99247.59;105718;1257;97592;-77
2023/03/31 11:18:12;;;;;;;12.30;6.30;;;;;;;14.34;85.76;99242.04;105816;1257;96625;-77
2023/03/31 11:21:21;;;;;;;13.00;6.00;;;;;;;14.41;85.51;99239.02;105796;1254;101261;-78
2023/03/31 11:24:39;;;;;;;11.50;6.10;;;;;;;14.47;85.48;99233.36;105853;1254;100376;-78
2023/03/31 11:28:00;;;;;;;13.00;6.40;;;;;;;14.51;84.86;99228.36;105925;1256;97738;-78
2023/03/31 11:30:54;;;;;;;11.00;6.20;;;;;;;14.60;85.32;99217.98;105561;1260;96607;-78
2023/03/31 11:33:52;;;;;;;12.10;5.50;;;;;;;14.68;84.64;99212.34;105613;1253;96538;-77
2023/03/31 11:36:40;;;;;;;9.40;5.50;;;;;;;14.74;84.25;99212.31;105550;1256;100773;-77
2023/03/31 11:40:00;;;;;;;8.20;5.00;;;;;;;14.83;84.42;99213.27;105545;1256;100298;-77
2023/03/31 11:42:54;;;;;;;9.40;4.70;;;;;;;14.94;84.12;99210.89;105794;1256;99039;-78
2023/03/31 11:45:48;;;;;;;10.90;4.70;;;;;;;15.02;83.28;99208.15;105703;1253;97094;-78
2023/03/31 11:48:58;;;;;;;13.30;5.10;;;;;;;15.09;82.61;99205.48;105742;1257;98292;-79
2023/03/31 11:51:54;;;;;;;9.40;4.50;;;;;;;15.18;81.99;99205.02;105638;1259;99991;-78
2023/03/31 11:55:04;;;;;;;10.10;4.40;;;;;;;15.22;81.08;99201.55;105859;1254;100310;-78
2023/03/31 11:58:20;;;;;;;7.90;4.90;;;;;;;15.22;80.78;99196.17;105819;1253;98923;-78
2023/03/31 12:01:17;;;;;;;10.20;4.50;;;;;;;15.27;80.95;99193.48;105729;1256;96631;-77
2023/03/31 12:04:11;;;;;;;6.90;3.90;;;;;;;15.30;80.33;99192.12;105565;1259;96507;-77
2023/03/31 12:07:02;;;;;;;13.30;4.60;;;;;;;15.31;79.71;99193.81;105731;1256;100007;-78
2023/03/31 12:10:12;;;;;;;8.70;4.00;;;;;;;15.29;79.01;99199.27;105738;1253;99735;-78
2023/03/31 12:13:11;;;;;;;10.30;4.00;;;;;;;15.26;78.84;99196.05;105632;1259;97696;-78
2023/03/31 12:16:11;;;;;;;8.70;4.00;;;;;;;15.28;79.32;99189.77;105605;1254;96606;-79
2023/03/31 12:19:23;;;;;;;8.20;4.80;;;;;;;15.26;78.83;99187.64;105744;1253;97133;-79
2023/03/31 12:22:08;;;;;;;10.20;3.60;;;;;;;15.24;79.07;99180.76;105819;1256;99973;-78
2023/03/31 12:24:54;;;;;;;8.00;3.80;;;;;;;15.25;78.28;99175.44;105769;1254;100066;-78
2023/03/31 12:27:41;;;;;;;8.30;4.50;;;;;;;15.26;78.05;99177.39;105697;1259;97714;-78
2023/03/31 12:30:38;;;;;;;10.70;3.80;;;;;;;15.30;77.83;99168.42;105584;1259;96584;-78
2023/03/31 12:33:26;;;;;;;7.20;3.70;;;;;;;15.35;77.80;99169.84;105734;1254;96549;-78
2023/03/31 12:36:36;;;;;;;9.30;5.10;;;;;;;15.38;77.48;99165.88;105679;1257;100489;-77
2023/03/31 12:39:34;;;;;;;10.40;3.80;;;;;;;15.43;77.94;99156.67;105860;1253;100205;-79
2023/03/31 12:42:46;;;;;;;11.10;4.50;;;;;;;15.46;77.56;99146.95;105731;1259;98931;-78
2023/03/31 12:45:39;;;;;;;7.80;3.90;;;;;;;15.47;77.00;99143.98;105600;1257;97116;-77
2023/03/31 12:49:01;;;;;;;10.00;4.30;;;;;;;15.47;76.79;99135.73;105673;1257;96602;-78
2023/03/31 12:51:59;;;;;;;7.70;4.30;;;;;;;15.49;76.65;99131.76;105707;1259;101251;-78
2023/03/31 12:55:09;;;;;;;8.70;4.10;;;;;;;15.48;75.84;99126.62;105702;1256;99423;-78
2023/03/31 12:58:28;;;;;;;8.80;4.30;;;;;;;15.46;75.65;99120.89;105691;1254;97733;-78
2023/03/31 13:01:23;;;;;;;7.20;4.20;;;;;;;15.47;75.61;99115.75;105698;1256;96523;-78